sensor_id;sensor_type;location;lat;lon;timestamp;temperature;humidity
65584;DHT22;62116;43.582;1.470;2022-08-20T00:01:01;22.20;64.48
65584;DHT22;62116;43.582;1.470;2022-08-20T00:03:31;22.20;64.36
65584;DHT22;62116;43.582;1.470;2022-08-20T00:06:09;22.18;64.33
65584;DHT22;62116;43.582;1.470;2022-08-20T00:08:35;22.18;64.34
65584;DHT22;62116;43.582;1.470;2022-08-20T00:11:03;22.21;64.47
65584;DHT22;62116;43.582;1.470;2022-08-20T00:13:35;22.23;64.45
65584;DHT22;62116;43.582;1.470;2022-08-20T00:16:01;22.21;64.49
65584;DHT22;62116;43.582;1.470;2022-08-20T00:18:26;22.18;64.57
65584;DHT22;62116;43.582;1.470;2022-08-20T00:20:53;22.14;64.90
65584;DHT22;62116;43.582;1.470;2022-08-20T00:23:19;22.16;65.06
65584;DHT22;62116;43.582;1.470;2022-08-20T00:25:46;22.13;65.17
65584;DHT22;62116;43.582;1.470;2022-08-20T00:28:12;22.06;65.42
65584;DHT22;62116;43.582;1.470;2022-08-20T00:30:39;22.06;65.63
65584;DHT22;62116;43.582;1.470;2022-08-20T00:33:08;22.04;65.71
65584;DHT22;62116;43.582;1.470;2022-08-20T00:35:39;22.06;65.61
65584;DHT22;62116;43.582;1.470;2022-08-20T00:38:05;22.04;65.55
65584;DHT22;62116;43.582;1.470;2022-08-20T00:40:38;22.02;65.50
65584;DHT22;62116;43.582;1.470;2022-08-20T00:43:12;21.99;65.58
65584;DHT22;62116;43.582;1.470;2022-08-20T00:45:47;22.00;65.58
65584;DHT22;62116;43.582;1.470;2022-08-20T00:48:13;21.99;65.47
65584;DHT22;62116;43.582;1.470;2022-08-20T00:50:38;21.93;65.44
65584;DHT22;62116;43.582;1.470;2022-08-20T00:53:04;21.89;65.61
65584;DHT22;62116;43.582;1.470;2022-08-20T00:55:33;21.90;65.38
65584;DHT22;62116;43.582;1.470;2022-08-20T00:58:03;21.92;65.43
65584;DHT22;62116;43.582;1.470;2022-08-20T01:00:36;21.90;65.64
65584;DHT22;62116;43.582;1.470;2022-08-20T01:03:05;21.89;65.54
65584;DHT22;62116;43.582;1.470;2022-08-20T01:05:35;21.89;65.43
65584;DHT22;62116;43.582;1.470;2022-08-20T01:08:00;21.86;65.48
65584;DHT22;62116;43.582;1.470;2022-08-20T01:10:31;21.88;65.52
65584;DHT22;62116;43.582;1.470;2022-08-20T01:12:57;21.83;65.70
65584;DHT22;62116;43.582;1.470;2022-08-20T01:15:26;21.82;65.72
65584;DHT22;62116;43.582;1.470;2022-08-20T01:17:55;21.76;65.71
65584;DHT22;62116;43.582;1.470;2022-08-20T01:21:02;21.75;65.60
65584;DHT22;62116;43.582;1.470;2022-08-20T01:26:07;21.69;65.74
65584;DHT22;62116;43.582;1.470;2022-08-20T01:31:11;21.65;65.55
65584;DHT22;62116;43.582;1.470;2022-08-20T01:33:37;21.65;65.76
65584;DHT22;62116;43.582;1.470;2022-08-20T01:36:03;21.62;65.70
65584;DHT22;62116;43.582;1.470;2022-08-20T01:38:29;21.62;65.76
65584;DHT22;62116;43.582;1.470;2022-08-20T01:43:41;21.52;65.80
65584;DHT22;62116;43.582;1.470;2022-08-20T01:46:09;21.48;65.85
65584;DHT22;62116;43.582;1.470;2022-08-20T01:48:37;21.43;66.02
65584;DHT22;62116;43.582;1.470;2022-08-20T01:53:38;21.34;66.48
65584;DHT22;62116;43.582;1.470;2022-08-20T01:56:13;21.31;66.53
65584;DHT22;62116;43.582;1.470;2022-08-20T01:58:42;21.32;66.52
65584;DHT22;62116;43.582;1.470;2022-08-20T02:01:22;21.31;66.51
65584;DHT22;62116;43.582;1.470;2022-08-20T02:03:49;21.31;66.68
65584;DHT22;62116;43.582;1.470;2022-08-20T02:06:15;21.31;66.59
65584;DHT22;62116;43.582;1.470;2022-08-20T02:08:41;21.31;66.67
65584;DHT22;62116;43.582;1.470;2022-08-20T02:11:08;21.31;66.68
65584;DHT22;62116;43.582;1.470;2022-08-20T02:13:33;21.28;66.78
65584;DHT22;62116;43.582;1.470;2022-08-20T02:15:59;21.28;66.82
65584;DHT22;62116;43.582;1.470;2022-08-20T02:18:24;21.25;66.86
65584;DHT22;62116;43.582;1.470;2022-08-20T02:20:50;21.28;66.92
65584;DHT22;62116;43.582;1.470;2022-08-20T02:23:16;21.24;67.11
65584;DHT22;62116;43.582;1.470;2022-08-20T02:25:44;21.21;67.13
65584;DHT22;62116;43.582;1.470;2022-08-20T02:28:13;21.18;67.25
65584;DHT22;62116;43.582;1.470;2022-08-20T02:30:43;21.14;67.19
65584;DHT22;62116;43.582;1.470;2022-08-20T02:33:10;21.16;67.15
65584;DHT22;62116;43.582;1.470;2022-08-20T02:35:37;21.16;67.25
65584;DHT22;62116;43.582;1.470;2022-08-20T02:38:03;21.11;67.32
65584;DHT22;62116;43.582;1.470;2022-08-20T02:40:30;21.09;67.36
65584;DHT22;62116;43.582;1.470;2022-08-20T02:42:57;21.05;67.43
65584;DHT22;62116;43.582;1.470;2022-08-20T02:45:23;21.05;67.50
65584;DHT22;62116;43.582;1.470;2022-08-20T02:47:49;21.05;67.62
65584;DHT22;62116;43.582;1.470;2022-08-20T02:50:19;21.04;67.88
65584;DHT22;62116;43.582;1.470;2022-08-20T02:52:45;21.06;67.85
65584;DHT22;62116;43.582;1.470;2022-08-20T02:55:11;21.08;67.68
65584;DHT22;62116;43.582;1.470;2022-08-20T02:57:37;21.09;67.64
65584;DHT22;62116;43.582;1.470;2022-08-20T03:00:11;21.08;67.66
65584;DHT22;62116;43.582;1.470;2022-08-20T03:02:38;21.08;67.82
65584;DHT22;62116;43.582;1.470;2022-08-20T03:05:04;21.01;67.91
65584;DHT22;62116;43.582;1.470;2022-08-20T03:07:30;20.99;67.87
65584;DHT22;62116;43.582;1.470;2022-08-20T03:09:55;20.98;67.95
65584;DHT22;62116;43.582;1.470;2022-08-20T03:12:21;20.95;67.98
65584;DHT22;62116;43.582;1.470;2022-08-20T03:14:46;20.94;68.03
65584;DHT22;62116;43.582;1.470;2022-08-20T03:17:11;20.98;68.11
65584;DHT22;62116;43.582;1.470;2022-08-20T03:19:37;20.98;68.24
65584;DHT22;62116;43.582;1.470;2022-08-20T03:22:03;20.99;67.97
65584;DHT22;62116;43.582;1.470;2022-08-20T03:24:28;20.98;67.98
65584;DHT22;62116;43.582;1.470;2022-08-20T03:26:54;20.98;67.92
65584;DHT22;62116;43.582;1.470;2022-08-20T03:29:19;20.96;68.06
65584;DHT22;62116;43.582;1.470;2022-08-20T03:31:45;20.95;68.02
65584;DHT22;62116;43.582;1.470;2022-08-20T03:34:10;20.92;68.26
65584;DHT22;62116;43.582;1.470;2022-08-20T03:36:36;20.92;68.17
65584;DHT22;62116;43.582;1.470;2022-08-20T03:39:05;20.91;68.14
65584;DHT22;62116;43.582;1.470;2022-08-20T03:41:30;20.91;68.27
65584;DHT22;62116;43.582;1.470;2022-08-20T03:43:56;20.90;68.30
65584;DHT22;62116;43.582;1.470;2022-08-20T03:46:23;20.90;68.36
65584;DHT22;62116;43.582;1.470;2022-08-20T03:48:48;20.84;68.56
65584;DHT22;62116;43.582;1.470;2022-08-20T03:51:14;20.80;68.59
65584;DHT22;62116;43.582;1.470;2022-08-20T03:53:39;20.80;68.60
65584;DHT22;62116;43.582;1.470;2022-08-20T03:56:05;20.75;68.78
65584;DHT22;62116;43.582;1.470;2022-08-20T03:58:32;20.74;68.78
65584;DHT22;62116;43.582;1.470;2022-08-20T04:00:57;20.74;68.83
65584;DHT22;62116;43.582;1.470;2022-08-20T04:03:23;20.70;68.89
65584;DHT22;62116;43.582;1.470;2022-08-20T04:05:49;20.67;68.99
65584;DHT22;62116;43.582;1.470;2022-08-20T04:08:19;20.64;69.09
65584;DHT22;62116;43.582;1.470;2022-08-20T04:10:47;20.67;69.04
65584;DHT22;62116;43.582;1.470;2022-08-20T04:13:14;20.67;68.98
65584;DHT22;62116;43.582;1.470;2022-08-20T04:15:40;20.67;68.88
65584;DHT22;62116;43.582;1.470;2022-08-20T04:18:08;20.67;69.02
65584;DHT22;62116;43.582;1.470;2022-08-20T04:20:36;20.65;68.90
65584;DHT22;62116;43.582;1.470;2022-08-20T04:23:03;20.67;68.82
65584;DHT22;62116;43.582;1.470;2022-08-20T04:25:30;20.64;68.88
65584;DHT22;62116;43.582;1.470;2022-08-20T04:27:57;20.65;68.91
65584;DHT22;62116;43.582;1.470;2022-08-20T04:30:24;20.64;68.97
65584;DHT22;62116;43.582;1.470;2022-08-20T04:32:50;20.64;69.06
65584;DHT22;62116;43.582;1.470;2022-08-20T04:35:17;20.63;69.03
65584;DHT22;62116;43.582;1.470;2022-08-20T04:37:44;20.61;69.03
65584;DHT22;62116;43.582;1.470;2022-08-20T04:40:17;20.61;69.08
65584;DHT22;62116;43.582;1.470;2022-08-20T04:43:01;20.61;69.01
65584;DHT22;62116;43.582;1.470;2022-08-20T04:45:29;20.61;69.13
65584;DHT22;62116;43.582;1.470;2022-08-20T04:47:54;20.63;69.16
65584;DHT22;62116;43.582;1.470;2022-08-20T04:50:20;20.63;69.10
65584;DHT22;62116;43.582;1.470;2022-08-20T04:52:46;20.58;69.20
65584;DHT22;62116;43.582;1.470;2022-08-20T04:55:13;20.61;69.11
65584;DHT22;62116;43.582;1.470;2022-08-20T04:57:40;20.63;69.08
65584;DHT22;62116;43.582;1.470;2022-08-20T05:00:13;20.61;69.14
65584;DHT22;62116;43.582;1.470;2022-08-20T05:02:39;20.55;69.28
65584;DHT22;62116;43.582;1.470;2022-08-20T05:05:07;20.54;69.37
65584;DHT22;62116;43.582;1.470;2022-08-20T05:07:38;20.48;69.71
65584;DHT22;62116;43.582;1.470;2022-08-20T05:10:05;20.48;69.67
65584;DHT22;62116;43.582;1.470;2022-08-20T05:12:30;20.44;69.86
65584;DHT22;62116;43.582;1.470;2022-08-20T05:14:56;20.41;69.92
65584;DHT22;62116;43.582;1.470;2022-08-20T05:17:21;20.39;70.20
65584;DHT22;62116;43.582;1.470;2022-08-20T05:19:47;20.41;70.20
65584;DHT22;62116;43.582;1.470;2022-08-20T05:22:13;20.36;70.33
65584;DHT22;62116;43.582;1.470;2022-08-20T05:24:38;20.40;70.31
65584;DHT22;62116;43.582;1.470;2022-08-20T05:27:04;20.40;70.36
65584;DHT22;62116;43.582;1.470;2022-08-20T05:29:29;20.43;70.48
65584;DHT22;62116;43.582;1.470;2022-08-20T05:31:55;20.43;70.52
65584;DHT22;62116;43.582;1.470;2022-08-20T05:34:21;20.44;70.70
65584;DHT22;62116;43.582;1.470;2022-08-20T05:36:50;20.43;70.83
65584;DHT22;62116;43.582;1.470;2022-08-20T05:39:18;20.41;70.88
65584;DHT22;62116;43.582;1.470;2022-08-20T05:41:45;20.41;71.02
65584;DHT22;62116;43.582;1.470;2022-08-20T05:44:10;20.39;71.05
65584;DHT22;62116;43.582;1.470;2022-08-20T05:46:38;20.44;71.05
65584;DHT22;62116;43.582;1.470;2022-08-20T05:49:06;20.40;71.08
65584;DHT22;62116;43.582;1.470;2022-08-20T05:51:32;20.41;71.09
65584;DHT22;62116;43.582;1.470;2022-08-20T05:53:57;20.44;71.07
65584;DHT22;62116;43.582;1.470;2022-08-20T05:56:23;20.43;71.13
65584;DHT22;62116;43.582;1.470;2022-08-20T05:58:48;20.41;71.25
65584;DHT22;62116;43.582;1.470;2022-08-20T06:01:14;20.44;71.31
65584;DHT22;62116;43.582;1.470;2022-08-20T06:03:39;20.44;71.30
65584;DHT22;62116;43.582;1.470;2022-08-20T06:06:23;20.51;71.27
65584;DHT22;62116;43.582;1.470;2022-08-20T06:08:49;20.54;71.37
65584;DHT22;62116;43.582;1.470;2022-08-20T06:11:14;20.57;71.21
65584;DHT22;62116;43.582;1.470;2022-08-20T06:13:39;20.58;70.96
65584;DHT22;62116;43.582;1.470;2022-08-20T06:16:05;20.60;70.76
65584;DHT22;62116;43.582;1.470;2022-08-20T06:18:30;20.68;70.72
65584;DHT22;62116;43.582;1.470;2022-08-20T06:20:56;20.67;70.75
65584;DHT22;62116;43.582;1.470;2022-08-20T06:23:21;20.68;70.76
65584;DHT22;62116;43.582;1.470;2022-08-20T06:25:49;20.70;70.68
65584;DHT22;62116;43.582;1.470;2022-08-20T06:28:15;20.74;70.48
65584;DHT22;62116;43.582;1.470;2022-08-20T06:30:40;20.77;70.01
65584;DHT22;62116;43.582;1.470;2022-08-20T06:33:05;20.81;69.75
65584;DHT22;62116;43.582;1.470;2022-08-20T06:35:31;20.77;69.67
65584;DHT22;62116;43.582;1.470;2022-08-20T06:37:58;20.74;70.29
65584;DHT22;62116;43.582;1.470;2022-08-20T06:40:27;20.70;70.45
65584;DHT22;62116;43.582;1.470;2022-08-20T06:42:53;20.68;70.66
65584;DHT22;62116;43.582;1.470;2022-08-20T06:45:21;20.77;70.57
65584;DHT22;62116;43.582;1.470;2022-08-20T06:47:52;20.84;70.30
65584;DHT22;62116;43.582;1.470;2022-08-20T06:50:24;20.85;70.23
65584;DHT22;62116;43.582;1.470;2022-08-20T06:52:50;20.94;70.27
65584;DHT22;62116;43.582;1.470;2022-08-20T06:55:16;21.01;70.08
65584;DHT22;62116;43.582;1.470;2022-08-20T06:57:42;21.05;70.19
65584;DHT22;62116;43.582;1.470;2022-08-20T07:00:33;21.11;70.06
65584;DHT22;62116;43.582;1.470;2022-08-20T07:02:59;21.21;70.01
65584;DHT22;62116;43.582;1.470;2022-08-20T07:05:26;21.28;70.00
65584;DHT22;62116;43.582;1.470;2022-08-20T07:07:52;21.35;69.90
65584;DHT22;62116;43.582;1.470;2022-08-20T07:10:18;21.48;69.61
65584;DHT22;62116;43.582;1.470;2022-08-20T07:12:44;21.62;69.11
65584;DHT22;62116;43.582;1.470;2022-08-20T07:15:12;21.80;68.85
65584;DHT22;62116;43.582;1.470;2022-08-20T07:17:39;21.93;68.54
65584;DHT22;62116;43.582;1.470;2022-08-20T07:20:06;21.97;68.53
65584;DHT22;62116;43.582;1.470;2022-08-20T07:22:33;22.17;67.91
65584;DHT22;62116;43.582;1.470;2022-08-20T07:25:06;22.30;67.31
65584;DHT22;62116;43.582;1.470;2022-08-20T07:27:32;22.48;66.85
65584;DHT22;62116;43.582;1.470;2022-08-20T07:29:58;22.61;66.30
65584;DHT22;62116;43.582;1.470;2022-08-20T07:32:42;22.68;65.90
65584;DHT22;62116;43.582;1.470;2022-08-20T07:35:12;22.77;66.34
65584;DHT22;62116;43.582;1.470;2022-08-20T07:37:43;22.77;67.08
65584;DHT22;62116;43.582;1.470;2022-08-20T07:40:14;22.72;68.95
65584;DHT22;62116;43.582;1.470;2022-08-20T07:42:40;22.67;68.66
65584;DHT22;62116;43.582;1.470;2022-08-20T07:45:12;22.63;70.19
65584;DHT22;62116;43.582;1.470;2022-08-20T07:47:39;22.64;70.52
65584;DHT22;62116;43.582;1.470;2022-08-20T07:50:07;22.65;71.39
65584;DHT22;62116;43.582;1.470;2022-08-20T07:52:33;22.71;70.57
65584;DHT22;62116;43.582;1.470;2022-08-20T07:55:08;22.72;70.40
65584;DHT22;62116;43.582;1.470;2022-08-20T07:57:34;22.77;71.83
65584;DHT22;62116;43.582;1.470;2022-08-20T08:00:00;22.81;73.14
65584;DHT22;62116;43.582;1.470;2022-08-20T08:02:26;22.79;72.64
65584;DHT22;62116;43.582;1.470;2022-08-20T08:04:53;22.78;72.34
65584;DHT22;62116;43.582;1.470;2022-08-20T08:07:18;22.78;72.29
65584;DHT22;62116;43.582;1.470;2022-08-20T08:09:45;22.81;72.92
65584;DHT22;62116;43.582;1.470;2022-08-20T08:12:12;22.81;73.20
65584;DHT22;62116;43.582;1.470;2022-08-20T08:14:39;22.79;73.57
65584;DHT22;62116;43.582;1.470;2022-08-20T08:17:06;22.78;73.34
65584;DHT22;62116;43.582;1.470;2022-08-20T08:19:36;22.77;72.67
65584;DHT22;62116;43.582;1.470;2022-08-20T08:22:08;22.74;71.78
65584;DHT22;62116;43.582;1.470;2022-08-20T08:24:36;22.75;72.03
65584;DHT22;62116;43.582;1.470;2022-08-20T08:27:02;22.78;72.49
65584;DHT22;62116;43.582;1.470;2022-08-20T08:29:28;22.78;72.30
65584;DHT22;62116;43.582;1.470;2022-08-20T08:31:54;22.79;73.24
65584;DHT22;62116;43.582;1.470;2022-08-20T08:34:19;22.87;73.40
65584;DHT22;62116;43.582;1.470;2022-08-20T08:36:45;22.91;73.40
65584;DHT22;62116;43.582;1.470;2022-08-20T08:39:10;22.94;73.36
65584;DHT22;62116;43.582;1.470;2022-08-20T08:41:42;22.98;72.19
65584;DHT22;62116;43.582;1.470;2022-08-20T08:44:27;23.05;72.41
65584;DHT22;62116;43.582;1.470;2022-08-20T08:46:57;23.15;72.13
65584;DHT22;62116;43.582;1.470;2022-08-20T08:49:27;23.25;72.27
65584;DHT22;62116;43.582;1.470;2022-08-20T08:51:58;23.29;71.30
65584;DHT22;62116;43.582;1.470;2022-08-20T08:54:27;23.37;71.07
65584;DHT22;62116;43.582;1.470;2022-08-20T08:56:54;23.38;72.08
65584;DHT22;62116;43.582;1.470;2022-08-20T08:59:20;23.43;73.07
65584;DHT22;62116;43.582;1.470;2022-08-20T09:01:49;23.45;71.62
65584;DHT22;62116;43.582;1.470;2022-08-20T09:04:16;23.49;72.04
65584;DHT22;62116;43.582;1.470;2022-08-20T09:06:43;23.53;70.95
65584;DHT22;62116;43.582;1.470;2022-08-20T09:09:24;23.55;69.95
65584;DHT22;62116;43.582;1.470;2022-08-20T09:11:52;23.63;69.79
65584;DHT22;62116;43.582;1.470;2022-08-20T09:14:19;23.63;71.00
65584;DHT22;62116;43.582;1.470;2022-08-20T09:16:45;23.62;71.29
65584;DHT22;62116;43.582;1.470;2022-08-20T09:19:10;23.63;70.61
65584;DHT22;62116;43.582;1.470;2022-08-20T09:21:36;23.62;68.61
65584;DHT22;62116;43.582;1.470;2022-08-20T09:24:01;23.63;69.05
65584;DHT22;62116;43.582;1.470;2022-08-20T09:26:27;23.66;69.20
65584;DHT22;62116;43.582;1.470;2022-08-20T09:28:52;23.65;68.76
65584;DHT22;62116;43.582;1.470;2022-08-20T09:31:18;23.67;69.19
65584;DHT22;62116;43.582;1.470;2022-08-20T09:33:43;23.70;69.59
65584;DHT22;62116;43.582;1.470;2022-08-20T09:36:09;23.72;69.58
65584;DHT22;62116;43.582;1.470;2022-08-20T09:38:34;23.70;68.90
65584;DHT22;62116;43.582;1.470;2022-08-20T09:40:59;23.74;68.35
65584;DHT22;62116;43.582;1.470;2022-08-20T09:43:25;23.80;68.19
65584;DHT22;62116;43.582;1.470;2022-08-20T09:45:50;23.86;68.00
65584;DHT22;62116;43.582;1.470;2022-08-20T09:48:16;23.86;68.11
65584;DHT22;62116;43.582;1.470;2022-08-20T09:50:45;23.89;67.61
65584;DHT22;62116;43.582;1.470;2022-08-20T09:53:12;23.90;67.72
65584;DHT22;62116;43.582;1.470;2022-08-20T09:55:40;23.93;67.77
65584;DHT22;62116;43.582;1.470;2022-08-20T10:00:53;23.96;67.34
65584;DHT22;62116;43.582;1.470;2022-08-20T10:03:19;24.03;66.97
65584;DHT22;62116;43.582;1.470;2022-08-20T10:05:44;24.03;66.98
65584;DHT22;62116;43.582;1.470;2022-08-20T10:08:10;24.07;66.53
65584;DHT22;62116;43.582;1.470;2022-08-20T10:10:36;24.13;66.60
65584;DHT22;62116;43.582;1.470;2022-08-20T10:13:02;24.17;66.57
65584;DHT22;62116;43.582;1.470;2022-08-20T10:15:28;24.17;65.81
65584;DHT22;62116;43.582;1.470;2022-08-20T10:17:54;24.23;65.79
65584;DHT22;62116;43.582;1.470;2022-08-20T10:20:22;24.26;65.18
65584;DHT22;62116;43.582;1.470;2022-08-20T10:22:47;24.28;65.01
65584;DHT22;62116;43.582;1.470;2022-08-20T10:25:13;24.28;64.64
65584;DHT22;62116;43.582;1.470;2022-08-20T10:27:38;24.28;64.13
65584;DHT22;62116;43.582;1.470;2022-08-20T10:30:05;24.33;63.54
65584;DHT22;62116;43.582;1.470;2022-08-20T10:32:30;24.40;64.13
65584;DHT22;62116;43.582;1.470;2022-08-20T10:34:56;24.40;64.19
65584;DHT22;62116;43.582;1.470;2022-08-20T10:37:23;24.41;63.90
65584;DHT22;62116;43.582;1.470;2022-08-20T10:39:49;24.44;62.06
65584;DHT22;62116;43.582;1.470;2022-08-20T10:42:15;24.48;63.17
65584;DHT22;62116;43.582;1.470;2022-08-20T10:44:40;24.51;62.38
65584;DHT22;62116;43.582;1.470;2022-08-20T10:47:19;24.53;63.22
65584;DHT22;62116;43.582;1.470;2022-08-20T10:49:46;24.58;62.73
65584;DHT22;62116;43.582;1.470;2022-08-20T10:52:11;24.57;62.82
65584;DHT22;62116;43.582;1.470;2022-08-20T10:54:37;24.65;63.09
65584;DHT22;62116;43.582;1.470;2022-08-20T10:57:08;24.67;63.11
65584;DHT22;62116;43.582;1.470;2022-08-20T10:59:38;24.72;62.46
65584;DHT22;62116;43.582;1.470;2022-08-20T11:02:04;24.77;62.13
65584;DHT22;62116;43.582;1.470;2022-08-20T11:04:29;24.79;61.05
65584;DHT22;62116;43.582;1.470;2022-08-20T11:06:55;24.87;61.52
65584;DHT22;62116;43.582;1.470;2022-08-20T11:09:20;24.89;61.62
65584;DHT22;62116;43.582;1.470;2022-08-20T11:11:46;24.89;61.84
65584;DHT22;62116;43.582;1.470;2022-08-20T11:14:11;24.91;61.95
65584;DHT22;62116;43.582;1.470;2022-08-20T11:16:36;24.89;61.51
65584;DHT22;62116;43.582;1.470;2022-08-20T11:19:02;24.94;60.73
65584;DHT22;62116;43.582;1.470;2022-08-20T11:21:27;24.89;60.44
65584;DHT22;62116;43.582;1.470;2022-08-20T11:23:53;24.85;59.98
65584;DHT22;62116;43.582;1.470;2022-08-20T11:26:22;24.88;60.32
65584;DHT22;62116;43.582;1.470;2022-08-20T11:28:49;24.92;60.45
65584;DHT22;62116;43.582;1.470;2022-08-20T11:31:15;24.95;60.56
65584;DHT22;62116;43.582;1.470;2022-08-20T11:33:40;25.02;60.84
65584;DHT22;62116;43.582;1.470;2022-08-20T11:36:06;25.14;60.46
65584;DHT22;62116;43.582;1.470;2022-08-20T11:38:32;25.16;60.76
65584;DHT22;62116;43.582;1.470;2022-08-20T11:40:57;25.23;60.46
65584;DHT22;62116;43.582;1.470;2022-08-20T11:43:22;25.32;60.58
65584;DHT22;62116;43.582;1.470;2022-08-20T11:45:51;25.42;59.76
65584;DHT22;62116;43.582;1.470;2022-08-20T11:48:18;25.47;59.70
65584;DHT22;62116;43.582;1.470;2022-08-20T11:50:44;25.46;59.10
65584;DHT22;62116;43.582;1.470;2022-08-20T11:53:09;25.50;58.70
65584;DHT22;62116;43.582;1.470;2022-08-20T11:55:36;25.52;58.94
65584;DHT22;62116;43.582;1.470;2022-08-20T11:58:01;25.47;58.14
65584;DHT22;62116;43.582;1.470;2022-08-20T12:00:28;25.53;57.44
65584;DHT22;62116;43.582;1.470;2022-08-20T12:02:54;25.55;57.77
65584;DHT22;62116;43.582;1.470;2022-08-20T12:05:19;25.61;58.39
65584;DHT22;62116;43.582;1.470;2022-08-20T12:07:45;25.63;57.99
65584;DHT22;62116;43.582;1.470;2022-08-20T12:10:10;25.63;58.24
65584;DHT22;62116;43.582;1.470;2022-08-20T12:12:37;25.66;57.69
65584;DHT22;62116;43.582;1.470;2022-08-20T12:15:05;25.65;57.42
65584;DHT22;62116;43.582;1.470;2022-08-20T12:17:31;25.67;56.78
65584;DHT22;62116;43.582;1.470;2022-08-20T12:19:59;25.63;56.84
65584;DHT22;62116;43.582;1.470;2022-08-20T12:22:25;25.70;57.62
65584;DHT22;62116;43.582;1.470;2022-08-20T12:24:52;25.76;57.59
65584;DHT22;62116;43.582;1.470;2022-08-20T12:27:26;25.72;57.08
65584;DHT22;62116;43.582;1.470;2022-08-20T12:29:58;25.73;56.96
65584;DHT22;62116;43.582;1.470;2022-08-20T12:32:27;25.72;56.43
65584;DHT22;62116;43.582;1.470;2022-08-20T12:34:53;25.73;56.26
65584;DHT22;62116;43.582;1.470;2022-08-20T12:37:21;25.73;55.99
65584;DHT22;62116;43.582;1.470;2022-08-20T12:39:50;25.70;56.36
65584;DHT22;62116;43.582;1.470;2022-08-20T12:42:16;25.70;56.58
65584;DHT22;62116;43.582;1.470;2022-08-20T12:44:42;25.73;56.05
65584;DHT22;62116;43.582;1.470;2022-08-20T12:47:20;25.79;55.57
65584;DHT22;62116;43.582;1.470;2022-08-20T12:52:40;25.82;55.52
65584;DHT22;62116;43.582;1.470;2022-08-20T12:55:07;25.82;55.24
65584;DHT22;62116;43.582;1.470;2022-08-20T12:57:36;25.82;54.92
65584;DHT22;62116;43.582;1.470;2022-08-20T13:00:12;25.79;54.20
65584;DHT22;62116;43.582;1.470;2022-08-20T13:02:38;25.77;54.17
65584;DHT22;62116;43.582;1.470;2022-08-20T13:05:09;25.79;54.24
65584;DHT22;62116;43.582;1.470;2022-08-20T13:07:35;25.75;54.32
65584;DHT22;62116;43.582;1.470;2022-08-20T13:10:01;25.76;54.54
65584;DHT22;62116;43.582;1.470;2022-08-20T13:12:26;25.85;54.17
65584;DHT22;62116;43.582;1.470;2022-08-20T13:14:52;25.86;53.58
65584;DHT22;62116;43.582;1.470;2022-08-20T13:17:18;25.89;53.31
65584;DHT22;62116;43.582;1.470;2022-08-20T13:19:44;25.90;52.75
65584;DHT22;62116;43.582;1.470;2022-08-20T13:22:12;25.90;51.52
65584;DHT22;62116;43.582;1.470;2022-08-20T13:24:38;25.94;51.87
65584;DHT22;62116;43.582;1.470;2022-08-20T13:27:09;25.96;51.65
65584;DHT22;62116;43.582;1.470;2022-08-20T13:29:35;26.00;51.76
65584;DHT22;62116;43.582;1.470;2022-08-20T13:32:00;26.06;51.29
65584;DHT22;62116;43.582;1.470;2022-08-20T13:34:26;26.04;51.06
65584;DHT22;62116;43.582;1.470;2022-08-20T13:36:52;26.10;50.87
65584;DHT22;62116;43.582;1.470;2022-08-20T13:39:20;26.13;51.52
65584;DHT22;62116;43.582;1.470;2022-08-20T13:41:45;26.13;51.38
65584;DHT22;62116;43.582;1.470;2022-08-20T13:44:11;26.17;52.01
65584;DHT22;62116;43.582;1.470;2022-08-20T13:46:36;26.18;52.05
65584;DHT22;62116;43.582;1.470;2022-08-20T13:49:02;26.23;51.54
65584;DHT22;62116;43.582;1.470;2022-08-20T13:51:27;26.23;51.34
65584;DHT22;62116;43.582;1.470;2022-08-20T13:53:52;26.37;49.31
65584;DHT22;62116;43.582;1.470;2022-08-20T13:56:18;26.28;50.00
65584;DHT22;62116;43.582;1.470;2022-08-20T13:58:44;26.31;50.78
65584;DHT22;62116;43.582;1.470;2022-08-20T14:01:09;26.28;49.89
65584;DHT22;62116;43.582;1.470;2022-08-20T14:03:35;26.23;50.08
65584;DHT22;62116;43.582;1.470;2022-08-20T14:06:02;26.23;49.24
65584;DHT22;62116;43.582;1.470;2022-08-20T14:08:27;26.24;48.73
65584;DHT22;62116;43.582;1.470;2022-08-20T14:10:53;26.28;50.62
65584;DHT22;62116;43.582;1.470;2022-08-20T14:13:21;26.26;49.81
65584;DHT22;62116;43.582;1.470;2022-08-20T14:15:47;26.28;49.68
65584;DHT22;62116;43.582;1.470;2022-08-20T14:18:13;26.28;50.14
65584;DHT22;62116;43.582;1.470;2022-08-20T14:20:40;26.24;48.41
65584;DHT22;62116;43.582;1.470;2022-08-20T14:23:06;26.26;47.81
65584;DHT22;62116;43.582;1.470;2022-08-20T14:25:32;26.26;49.42
65584;DHT22;62116;43.582;1.470;2022-08-20T14:27:59;26.26;49.68
65584;DHT22;62116;43.582;1.470;2022-08-20T14:30:32;26.27;48.72
65584;DHT22;62116;43.582;1.470;2022-08-20T14:32:57;26.27;48.52
65584;DHT22;62116;43.582;1.470;2022-08-20T14:35:23;26.34;48.48
65584;DHT22;62116;43.582;1.470;2022-08-20T14:37:50;26.30;48.48
65584;DHT22;62116;43.582;1.470;2022-08-20T14:40:18;26.31;48.21
65584;DHT22;62116;43.582;1.470;2022-08-20T14:42:44;26.31;48.59
65584;DHT22;62116;43.582;1.470;2022-08-20T14:45:11;26.34;48.68
65584;DHT22;62116;43.582;1.470;2022-08-20T14:47:39;26.40;48.61
65584;DHT22;62116;43.582;1.470;2022-08-20T14:50:08;26.38;48.41
65584;DHT22;62116;43.582;1.470;2022-08-20T14:52:34;26.34;49.12
65584;DHT22;62116;43.582;1.470;2022-08-20T14:55:06;26.41;48.54
65584;DHT22;62116;43.582;1.470;2022-08-20T14:57:32;26.43;48.48
65584;DHT22;62116;43.582;1.470;2022-08-20T14:59:58;26.41;48.45
65584;DHT22;62116;43.582;1.470;2022-08-20T15:02:24;26.47;48.10
65584;DHT22;62116;43.582;1.470;2022-08-20T15:04:49;26.45;47.06
65584;DHT22;62116;43.582;1.470;2022-08-20T15:07:27;26.45;46.57
65584;DHT22;62116;43.582;1.470;2022-08-20T15:09:54;26.44;46.76
65584;DHT22;62116;43.582;1.470;2022-08-20T15:12:21;26.47;47.45
65584;DHT22;62116;43.582;1.470;2022-08-20T15:14:47;26.47;48.29
65584;DHT22;62116;43.582;1.470;2022-08-20T15:17:25;26.40;48.54
65584;DHT22;62116;43.582;1.470;2022-08-20T15:19:51;26.47;47.86
65584;DHT22;62116;43.582;1.470;2022-08-20T15:22:17;26.48;47.91
65584;DHT22;62116;43.582;1.470;2022-08-20T15:24:43;26.48;47.40
65584;DHT22;62116;43.582;1.470;2022-08-20T15:29:40;26.48;47.51
65584;DHT22;62116;43.582;1.470;2022-08-20T15:32:06;26.43;47.75
65584;DHT22;62116;43.582;1.470;2022-08-20T15:34:34;26.45;47.91
65584;DHT22;62116;43.582;1.470;2022-08-20T15:37:08;26.48;48.33
65584;DHT22;62116;43.582;1.470;2022-08-20T15:39:34;26.45;48.56
65584;DHT22;62116;43.582;1.470;2022-08-20T15:42:00;26.54;47.97
65584;DHT22;62116;43.582;1.470;2022-08-20T15:44:25;26.52;48.01
65584;DHT22;62116;43.582;1.470;2022-08-20T15:46:50;26.52;47.85
65584;DHT22;62116;43.582;1.470;2022-08-20T15:49:16;26.51;47.76